Time;durP1;ratioP1;P1;durP2;ratioP2;P2;SDS_P1;SDS_P2;PMS_P1;PMS_P2;Temp;Humidity;BMP_temperature;BMP_pressure;BME280_temperature;BME280_humidity;BME280_pressure;Samples;Min_cycle;Max_cycle;Signal;HPM_P1;HPM_P2
2022/09/14 00:00:51;;;;;;;1.50;1.10;;;;;;;11.06;79.33;98149.16;104915;1271;61135;-25
2022/09/14 00:03:38;;;;;;;2.20;1.10;;;;;;;10.75;80.11;98144.75;104866;1271;61131;-24
2022/09/14 00:06:07;;;;;;;1.30;1.20;;;;;;;10.47;80.58;98138.84;104792;1271;75549;-25
2022/09/14 00:08:34;;;;;;;2.00;0.90;;;;;;;10.25;81.26;98141.22;104664;1271;76169;-25
2022/09/14 00:11:06;;;;;;;4.50;1.00;;;;;;;10.67;81.14;98147.50;104738;1271;74206;-25
2022/09/14 00:13:34;;;;;;;3.70;1.40;;;;;;;11.17;79.54;98151.62;104689;1271;61131;-25
2022/09/14 00:16:05;;;;;;;2.10;1.40;;;;;;;11.17;79.16;98148.64;104877;1271;61114;-25
2022/09/14 00:18:34;;;;;;;1.60;1.30;;;;;;;10.94;79.83;98138.19;104668;1271;75430;-25
2022/09/14 00:21:02;;;;;;;4.00;1.40;;;;;;;10.67;80.46;98138.86;104827;1271;76148;-25
2022/09/14 00:23:29;;;;;;;1.90;1.70;;;;;;;10.41;81.20;98132.30;104796;1271;74377;-24
2022/09/14 00:26:08;;;;;;;1.80;1.00;;;;;;;10.23;81.29;98130.88;104911;1271;62701;-25
2022/09/14 00:28:43;;;;;;;4.70;1.20;;;;;;;10.68;81.25;98128.22;104775;1271;61179;-25
2022/09/14 00:31:09;;;;;;;2.30;1.60;;;;;;;11.10;79.74;98127.63;104757;1269;74730;-25
2022/09/14 00:33:37;;;;;;;2.80;1.40;;;;;;;11.04;79.77;98125.59;104978;1271;75759;-25
2022/09/14 00:36:10;;;;;;;2.10;1.30;;;;;;;10.80;80.03;98123.77;104792;1271;73416;-25
2022/09/14 00:38:37;;;;;;;2.00;1.60;;;;;;;10.48;80.92;98122.98;104821;1271;62030;-25
2022/09/14 00:41:06;;;;;;;4.30;1.30;;;;;;;10.27;81.46;98125.50;104989;1271;61079;-25
2022/09/14 00:44:03;;;;;;;2.60;1.50;;;;;;;10.60;81.27;98132.10;104745;1271;74512;-25
2022/09/14 00:46:35;;;;;;;3.80;1.80;;;;;;;10.89;80.64;98132.83;104727;1274;76065;-25
2022/09/14 00:49:06;;;;;;;2.80;1.70;;;;;;;10.81;80.60;98127.48;104651;1271;73347;-25
2022/09/14 00:51:33;;;;;;;6.50;2.10;;;;;;;10.57;80.95;98124.73;104691;1274;61163;-25
2022/09/14 00:54:02;;;;;;;3.20;2.20;;;;;;;10.34;81.46;98121.88;104772;1272;62103;-25
2022/09/14 00:56:29;;;;;;;2.00;1.30;;;;;;;10.17;81.98;98121.77;104681;1271;75594;-25
2022/09/14 00:58:57;;;;;;;2.50;1.70;;;;;;;10.57;81.40;98124.52;104981;1271;76202;-24
2022/09/14 01:01:25;;;;;;;3.20;1.90;;;;;;;11.01;80.22;98130.36;104704;1271;73453;-25
2022/09/14 01:03:52;;;;;;;2.60;1.90;;;;;;;11.00;79.77;98124.06;104709;1271;62113;-24
2022/09/14 01:06:36;;;;;;;3.30;1.80;;;;;;;10.77;79.95;98116.91;104767;1271;62196;-24
2022/09/14 01:09:28;;;;;;;3.00;1.90;;;;;;;10.47;80.52;98112.30;104771;1271;75462;-24
2022/09/14 01:12:21;;;;;;;2.70;1.70;;;;;;;10.20;81.15;98108.63;105032;1271;75006;-26
2022/09/14 01:15:10;;;;;;;1.40;1.10;;;;;;;9.99;82.20;98100.02;104886;1271;74481;-24
2022/09/14 01:17:47;;;;;;;1.50;1.20;;;;;;;10.64;81.27;98097.45;104957;1271;61123;-24
2022/09/14 01:20:26;;;;;;;2.70;1.50;;;;;;;11.08;79.32;98103.13;104986;1271;61059;-24
2022/09/14 01:23:16;;;;;;;1.80;1.50;;;;;;;10.96;79.41;98098.05;104956;1271;75428;-24
2022/09/14 01:26:06;;;;;;;2.40;1.60;;;;;;;10.71;80.13;98093.52;104793;1271;74802;-24
2022/09/14 01:28:44;;;;;;;2.40;1.50;;;;;;;10.43;80.35;98088.77;104951;1269;74321;-24
2022/09/14 01:31:15;;;;;;;4.80;1.00;;;;;;;10.22;81.07;98091.23;104800;1271;62079;-24
2022/09/14 01:33:46;;;;;;;1.70;1.20;;;;;;;10.67;81.05;98088.15;104863;1271;61742;-24
2022/09/14 01:36:13;;;;;;;1.80;1.40;;;;;;;11.20;79.34;98086.85;105154;1271;75521;-24
2022/09/14 01:38:46;;;;;;;1.60;1.50;;;;;;;11.19;78.80;98086.33;105082;1271;75979;-24
2022/09/14 01:41:14;;;;;;;2.10;1.40;;;;;;;10.87;79.24;98082.29;105144;1271;74447;-24
2022/09/14 01:43:53;;;;;;;2.10;1.40;;;;;;;10.54;80.26;98073.00;105030;1271;61189;-24
2022/09/14 01:46:22;;;;;;;2.20;1.30;;;;;;;10.22;81.09;98073.55;104781;1271;62196;-24
2022/09/14 01:48:57;;;;;;;3.40;1.50;;;;;;;10.14;81.94;98069.81;104766;1271;75382;-24
2022/09/14 01:51:30;;;;;;;2.00;1.70;;;;;;;10.65;80.77;98071.40;104777;1271;76040;-24
2022/09/14 01:54:03;;;;;;;2.50;1.40;;;;;;;10.88;79.85;98065.34;104791;1271;73454;-24
2022/09/14 01:56:41;;;;;;;2.50;1.30;;;;;;;10.81;79.97;98066.33;104654;1271;61455;-24
2022/09/14 01:59:10;;;;;;;1.70;1.30;;;;;;;10.64;80.01;98069.55;104839;1271;61871;-24
2022/09/14 02:01:40;;;;;;;2.10;1.60;;;;;;;10.44;80.39;98069.04;105007;1271;75542;-24
2022/09/14 02:04:09;;;;;;;1.40;0.90;;;;;;;10.25;81.13;98067.91;105073;1274;75924;-24
2022/09/14 02:06:38;;;;;;;2.70;1.30;;;;;;;10.62;80.86;98067.30;104911;1271;74323;-24
2022/09/14 02:09:07;;;;;;;2.40;1.30;;;;;;;11.12;79.42;98065.73;105107;1270;62182;-24
2022/09/14 02:11:34;;;;;;;1.50;1.20;;;;;;;11.16;78.92;98061.56;105117;1271;61078;-24
2022/09/14 02:14:02;;;;;;;3.70;1.50;;;;;;;11.04;79.14;98058.98;104772;1271;75649;-25
2022/09/14 02:16:29;;;;;;;2.90;1.40;;;;;;;10.81;79.34;98062.54;104746;1271;76042;-24
2022/09/14 02:19:00;;;;;;;2.20;1.30;;;;;;;10.57;79.66;98062.48;104940;1271;74246;-24
2022/09/14 02:21:31;;;;;;;1.40;1.10;;;;;;;10.35;80.25;98061.71;104757;1271;62117;-24
2022/09/14 02:23:58;;;;;;;1.50;1.10;;;;;;;10.79;80.35;98065.56;104729;1271;61443;-24
2022/09/14 02:26:26;;;;;;;2.90;1.20;;;;;;;11.25;78.74;98065.20;104627;1274;76279;-24
2022/09/14 02:28:54;;;;;;;1.30;1.10;;;;;;;11.26;78.47;98059.40;104936;1271;75951;-24
2022/09/14 02:32:00;;;;;;;1.60;1.30;;;;;;;10.99;78.64;98057.16;104684;1271;73366;-24
2022/09/14 02:34:39;;;;;;;2.20;1.40;;;;;;;10.63;79.63;98046.40;104858;1271;61073;-24
2022/09/14 02:37:18;;;;;;;3.40;1.50;;;;;;;10.33;80.35;98042.69;105030;1272;61798;-24
2022/09/14 02:40:10;;;;;;;1.30;0.90;;;;;;;10.15;81.56;98042.87;104912;1271;74443;-24
2022/09/14 02:42:57;;;;;;;1.40;1.00;;;;;;;10.78;80.86;98037.77;105159;1271;77426;-24
2022/09/14 02:45:55;;;;;;;1.30;1.10;;;;;;;11.28;78.61;98030.48;105167;1271;72816;-24
2022/09/14 02:48:29;;;;;;;3.00;1.20;;;;;;;11.14;78.42;98020.71;105308;1271;61134;-24
2022/09/14 02:51:02;;;;;;;1.50;1.20;;;;;;;10.91;78.90;98016.04;105159;1271;61290;-24
2022/09/14 02:53:58;;;;;;;1.90;1.30;;;;;;;10.54;79.44;98016.52;105171;1271;75564;-24
2022/09/14 02:56:25;;;;;;;1.50;1.20;;;;;;;10.21;80.73;98014.36;105139;1271;74993;-25
2022/09/14 02:58:55;;;;;;;1.80;1.40;;;;;;;10.46;80.68;98012.49;104999;1271;74269;-24
2022/09/14 03:01:23;;;;;;;1.60;1.20;;;;;;;10.65;80.04;98007.84;105310;1271;61878;-24
2022/09/14 03:03:50;;;;;;;2.10;1.40;;;;;;;10.56;79.69;98010.28;105121;1271;61956;-24
2022/09/14 03:06:17;;;;;;;1.80;1.60;;;;;;;10.28;80.63;98010.88;105043;1271;75501;-24
2022/09/14 03:08:44;;;;;;;1.30;1.20;;;;;;;9.91;82.22;98008.29;104947;1271;75883;-24
2022/09/14 03:11:11;;;;;;;2.30;1.40;;;;;;;9.91;82.84;98004.35;104922;1271;73260;-24
2022/09/14 03:13:39;;;;;;;1.50;1.30;;;;;;;10.28;81.77;98001.48;104939;1271;61134;-24
2022/09/14 03:16:11;;;;;;;2.50;1.40;;;;;;;10.39;80.83;98002.00;104933;1271;61133;-25
2022/09/14 03:18:39;;;;;;;1.80;1.30;;;;;;;10.34;80.84;97996.31;104770;1271;75472;-24
2022/09/14 03:21:08;;;;;;;2.10;1.50;;;;;;;10.18;81.00;97996.56;105038;1271;75917;-24
2022/09/14 03:23:40;;;;;;;1.20;1.10;;;;;;;10.00;81.88;97997.27;105092;1271;74717;-24
2022/09/14 03:26:18;;;;;;;5.00;1.60;;;;;;;10.26;81.70;97999.49;104864;1274;61919;-24
2022/09/14 03:28:52;;;;;;;2.00;1.60;;;;;;;10.55;80.19;97993.89;104999;1271;62301;-24
2022/09/14 03:31:19;;;;;;;4.10;1.60;;;;;;;10.55;80.23;97993.88;104816;1269;75433;-24
2022/09/14 03:33:51;;;;;;;1.70;1.50;;;;;;;10.45;80.58;97988.85;104977;1271;74693;-24
2022/09/14 03:36:18;;;;;;;2.00;1.70;;;;;;;10.29;80.39;97986.02;104731;1273;74376;-24
2022/09/14 03:38:47;;;;;;;2.40;1.40;;;;;;;10.10;81.36;97982.27;105024;1271;62552;-24
2022/09/14 03:41:14;;;;;;;1.90;1.70;;;;;;;10.40;81.00;97983.71;105163;1270;61114;-24
2022/09/14 03:43:42;;;;;;;3.50;1.90;;;;;;;10.66;79.57;97979.28;105270;1271;74422;-24
2022/09/14 03:46:12;;;;;;;3.20;1.70;;;;;;;10.58;79.47;97981.44;105157;1271;76012;-24
2022/09/14 03:48:38;;;;;;;3.20;2.20;;;;;;;10.29;80.21;97991.52;104850;1271;73177;-24
2022/09/14 03:51:06;;;;;;;2.80;1.60;;;;;;;10.01;81.45;97985.89;105285;1271;61242;-24
2022/09/14 03:53:33;;;;;;;2.20;1.80;;;;;;;10.09;81.86;97979.73;104917;1271;62071;-24
2022/09/14 03:56:05;;;;;;;2.30;1.90;;;;;;;10.58;80.44;97976.59;105077;1271;75263;-24
2022/09/14 03:58:32;;;;;;;4.80;2.20;;;;;;;10.65;78.83;97974.55;105044;1271;74234;-25
2022/09/14 04:01:07;;;;;;;3.20;2.20;;;;;;;10.48;79.59;97973.88;105014;1271;74499;-25
2022/09/14 04:03:35;;;;;;;5.60;2.30;;;;;;;10.28;80.24;97975.02;104720;1271;61275;-24
2022/09/14 04:06:06;;;;;;;2.40;1.80;;;;;;;10.08;81.07;97976.93;104909;1271;61770;-26
2022/09/14 04:08:34;;;;;;;3.70;1.90;;;;;;;10.38;80.38;97977.85;104743;1271;75545;-24
2022/09/14 04:11:16;;;;;;;2.90;2.00;;;;;;;10.62;79.16;97971.15;104811;1271;74994;-24
2022/09/14 04:13:44;;;;;;;4.10;2.70;;;;;;;10.70;78.59;97967.84;104835;1270;74356;-25
2022/09/14 04:16:13;;;;;;;2.10;1.70;;;;;;;10.45;79.37;97969.00;105049;1271;62104;-25
2022/09/14 04:18:41;;;;;;;4.90;2.30;;;;;;;10.25;80.25;97968.67;104829;1271;61739;-25
2022/09/14 04:21:18;;;;;;;4.80;1.60;;;;;;;10.18;80.30;97969.52;105203;1271;75478;-25
2022/09/14 04:23:45;;;;;;;4.00;1.80;;;;;;;10.57;79.51;97967.30;104856;1271;75792;-25
2022/09/14 04:26:32;;;;;;;1.90;1.70;;;;;;;10.92;78.35;97964.44;104831;1271;74358;-25
2022/09/14 04:28:59;;;;;;;3.00;2.30;;;;;;;10.86;78.01;97962.06;104998;1271;61147;-25
2022/09/14 04:31:27;;;;;;;2.40;1.70;;;;;;;10.66;78.58;97962.16;104966;1271;61124;-24
2022/09/14 04:33:55;;;;;;;4.00;2.40;;;;;;;10.33;78.93;97965.30;104917;1271;75426;-25
2022/09/14 04:36:27;;;;;;;3.60;1.70;;;;;;;10.10;80.08;97963.86;104850;1271;75916;-24
2022/09/14 04:38:54;;;;;;;2.80;2.00;;;;;;;10.46;79.73;97958.02;104755;1271;73245;-25
2022/09/14 04:41:21;;;;;;;3.00;2.50;;;;;;;10.65;78.44;97955.23;104862;1272;61223;-25
2022/09/14 04:43:49;;;;;;;6.20;2.50;;;;;;;10.67;78.59;97955.45;104946;1271;61900;-25
2022/09/14 04:46:18;;;;;;;4.00;2.50;;;;;;;10.53;78.64;97955.25;104785;1271;75347;-25
2022/09/14 04:48:46;;;;;;;2.10;1.70;;;;;;;10.36;79.51;97949.23;104753;1271;74226;-25
2022/09/14 04:51:23;;;;;;;2.10;1.90;;;;;;;10.47;79.54;97944.20;104977;1271;74383;-25
2022/09/14 04:53:52;;;;;;;3.30;1.90;;;;;;;10.93;78.10;97939.08;104818;1271;61394;-25
2022/09/14 04:56:21;;;;;;;2.40;2.10;;;;;;;11.02;77.69;97937.91;104820;1271;62185;-25
2022/09/14 04:58:49;;;;;;;4.60;2.10;;;;;;;10.97;77.59;97933.90;104782;1271;75463;-25
2022/09/14 05:01:21;;;;;;;2.80;2.30;;;;;;;10.79;78.01;97936.20;104948;1271;76233;-25
2022/09/14 05:03:48;;;;;;;4.30;1.50;;;;;;;10.70;78.45;97929.66;105103;1271;73536;-25
2022/09/14 05:06:23;;;;;;;2.40;2.10;;;;;;;10.97;77.89;97927.64;105021;1271;61002;-25
2022/09/14 05:08:50;;;;;;;2.00;1.80;;;;;;;11.24;76.50;97933.27;105049;1272;62073;-25
2022/09/14 05:11:20;;;;;;;2.30;1.90;;;;;;;11.03;76.80;97932.59;105015;1270;75344;-25
2022/09/14 05:13:47;;;;;;;2.40;2.10;;;;;;;10.95;77.22;97934.80;104811;1271;76391;-25
2022/09/14 05:16:18;;;;;;;2.60;2.00;;;;;;;10.70;78.57;97927.17;104913;1271;74404;-25
2022/09/14 05:18:46;;;;;;;2.90;1.60;;;;;;;10.88;78.97;97923.00;105065;1271;62523;-24
2022/09/14 05:21:15;;;;;;;2.90;2.00;;;;;;;11.25;76.24;97924.77;104935;1271;61144;-25
2022/09/14 05:23:42;;;;;;;2.90;2.10;;;;;;;11.36;76.56;97931.55;104763;1271;74545;-25
2022/09/14 05:26:10;;;;;;;2.80;2.60;;;;;;;11.28;76.82;97930.45;104980;1271;75971;-25
2022/09/14 05:28:37;;;;;;;3.30;2.70;;;;;;;11.10;77.97;97930.51;104642;1268;74217;-25
2022/09/14 05:31:08;;;;;;;2.00;1.50;;;;;;;10.95;78.47;97931.64;105044;1270;61111;-25
2022/09/14 05:33:36;;;;;;;2.70;2.10;;;;;;;11.09;78.66;97935.97;104778;1274;61053;-24
2022/09/14 05:36:05;;;;;;;3.20;2.70;;;;;;;11.57;77.10;97926.77;105214;1271;75698;-25
2022/09/14 05:38:33;;;;;;;2.80;2.00;;;;;;;11.71;76.93;97921.71;104816;1271;75935;-25
2022/09/14 05:41:00;;;;;;;2.30;2.10;;;;;;;11.65;76.59;97916.03;104704;1271;73809;-25
2022/09/14 05:43:28;;;;;;;3.50;2.90;;;;;;;11.43;77.38;97913.14;104991;1271;61097;-25
2022/09/14 05:45:55;;;;;;;2.30;1.60;;;;;;;11.42;77.95;97911.67;104965;1271;63247;-25
2022/09/14 05:48:22;;;;;;;3.20;2.00;;;;;;;11.69;77.01;97902.61;104889;1271;75738;-25
2022/09/14 05:50:57;;;;;;;3.50;3.00;;;;;;;11.99;75.91;97902.42;104966;1271;76412;-24
2022/09/14 05:53:24;;;;;;;5.00;2.40;;;;;;;11.98;76.22;97914.87;104761;1271;74151;-25
2022/09/14 05:56:01;;;;;;;3.60;2.50;;;;;;;11.94;76.31;97917.58;104906;1271;61132;-24
2022/09/14 05:58:28;;;;;;;3.20;1.60;;;;;;;11.83;76.65;97918.41;104765;1271;61054;-24
2022/09/14 06:00:57;;;;;;;3.20;2.30;;;;;;;11.86;77.16;97912.65;104994;1271;75468;-25
2022/09/14 06:03:24;;;;;;;4.30;2.20;;;;;;;12.30;76.08;97907.34;105043;1271;75817;-25
2022/09/14 06:05:53;;;;;;;2.70;2.20;;;;;;;12.41;75.92;97909.67;104915;1271;74729;-25
2022/09/14 06:08:22;;;;;;;2.90;2.40;;;;;;;12.32;75.92;97908.35;104964;1270;61044;-25
2022/09/14 06:10:49;;;;;;;4.10;2.60;;;;;;;12.35;76.20;97910.70;104747;1272;61214;-25
2022/09/14 06:13:17;;;;;;;2.90;2.30;;;;;;;12.34;76.38;97904.52;104859;1271;75338;-24
2022/09/14 06:15:44;;;;;;;2.40;2.20;;;;;;;12.93;75.16;97903.55;104930;1271;75983;-24
2022/09/14 06:18:11;;;;;;;4.20;3.00;;;;;;;13.31;73.76;97906.08;104932;1271;74144;-26
2022/09/14 06:20:39;;;;;;;3.50;2.70;;;;;;;13.46;72.65;97907.55;104804;1271;62045;-24
2022/09/14 06:23:07;;;;;;;3.30;2.50;;;;;;;13.35;73.14;97906.95;104880;1271;62237;-25
2022/09/14 06:25:35;;;;;;;4.80;2.80;;;;;;;13.10;74.26;97906.96;104951;1271;75366;-24
2022/09/14 06:28:02;;;;;;;3.90;2.60;;;;;;;13.07;75.18;97907.98;104909;1271;76304;-24
2022/09/14 06:30:29;;;;;;;4.00;2.70;;;;;;;13.50;73.68;97906.44;104964;1271;74442;-25
2022/09/14 06:32:56;;;;;;;4.20;2.40;;;;;;;13.79;72.68;97909.51;104905;1271;61138;-24
2022/09/14 06:35:23;;;;;;;4.30;2.50;;;;;;;13.74;73.06;97914.45;104919;1271;61054;-23
2022/09/14 06:37:51;;;;;;;3.70;2.80;;;;;;;13.60;73.55;97912.45;104924;1271;75038;-24
2022/09/14 06:40:18;;;;;;;3.60;2.80;;;;;;;13.46;74.20;97912.68;104727;1271;75810;-24
2022/09/14 06:42:45;;;;;;;4.10;2.10;;;;;;;13.32;75.37;97909.77;104920;1271;74333;-24
2022/09/14 06:45:12;;;;;;;2.10;1.90;;;;;;;13.29;76.21;97909.80;105208;1271;63524;-24
2022/09/14 06:47:40;;;;;;;5.30;2.70;;;;;;;13.76;75.52;97913.69;105242;1271;61028;-24
2022/09/14 06:50:07;;;;;;;3.80;2.60;;;;;;;13.80;75.53;97908.46;105022;1271;75429;-24
2022/09/14 06:52:35;;;;;;;4.20;2.50;;;;;;;13.62;76.16;97907.75;104997;1271;75987;-24
2022/09/14 06:55:03;;;;;;;3.10;2.80;;;;;;;13.18;77.32;97902.77;104927;1271;74472;-26
2022/09/14 06:57:31;;;;;;;2.50;2.00;;;;;;;12.92;78.62;97908.23;104986;1270;61076;-26
2022/09/14 06:59:57;;;;;;;3.00;2.20;;;;;;;13.05;79.08;97913.90;104890;1271;61804;-26
2022/09/14 07:02:25;;;;;;;2.70;2.20;;;;;;;13.42;78.21;97913.80;104953;1271;75476;-27
2022/09/14 07:04:52;;;;;;;3.70;2.70;;;;;;;13.38;78.27;97912.45;104946;1271;75821;-27
2022/09/14 07:07:30;;;;;;;3.80;2.70;;;;;;;13.03;79.79;97909.98;104815;1271;74483;-27
2022/09/14 07:09:57;;;;;;;4.20;1.90;;;;;;;12.77;80.84;97913.15;104939;1271;62088;-27
2022/09/14 07:12:24;;;;;;;3.20;2.60;;;;;;;12.64;82.18;97911.98;105044;1271;61052;-27
2022/09/14 07:14:51;;;;;;;4.10;2.70;;;;;;;12.88;81.35;97901.23;104929;1271;75418;-26
2022/09/14 07:17:18;;;;;;;5.00;2.60;;;;;;;12.79;81.34;97897.46;104985;1271;75052;-26
2022/09/14 07:19:45;;;;;;;5.90;3.60;;;;;;;12.66;82.03;97898.63;105128;1271;74456;-27
2022/09/14 07:22:12;;;;;;;2.00;1.70;;;;;;;12.64;82.35;97904.60;105005;1271;62680;-27
2022/09/14 07:24:42;;;;;;;4.00;2.10;;;;;;;13.09;81.68;97897.89;104958;1271;61092;-27
2022/09/14 07:27:09;;;;;;;6.30;2.70;;;;;;;13.21;80.85;97892.13;104895;1271;75327;-27
2022/09/14 07:29:36;;;;;;;2.20;1.70;;;;;;;12.94;82.00;97894.38;104926;1271;76270;-27
2022/09/14 07:32:04;;;;;;;4.30;3.00;;;;;;;12.76;82.98;97895.51;104925;1271;75039;-27
2022/09/14 07:34:31;;;;;;;4.50;2.80;;;;;;;12.64;83.40;97896.81;104724;1271;61136;-27
2022/09/14 07:36:58;;;;;;;2.20;2.00;;;;;;;12.72;83.13;97897.84;104866;1271;61670;-27
2022/09/14 07:39:25;;;;;;;2.70;2.10;;;;;;;13.20;82.07;97889.73;105012;1271;74392;-27
2022/09/14 07:41:52;;;;;;;4.00;2.70;;;;;;;13.34;81.23;97887.77;104926;1271;76053;-27
2022/09/14 07:44:19;;;;;;;3.00;2.70;;;;;;;13.31;81.59;97884.52;104935;1271;74195;-27
2022/09/14 07:46:47;;;;;;;3.20;2.70;;;;;;;13.18;82.35;97881.88;105014;1271;61832;-27
2022/09/14 07:49:14;;;;;;;2.20;2.10;;;;;;;13.34;82.48;97881.21;104941;1270;61067;-27
2022/09/14 07:51:41;;;;;;;3.60;2.80;;;;;;;14.04;81.58;97878.57;104862;1271;75429;-27
2022/09/14 07:54:11;;;;;;;3.10;2.50;;;;;;;14.21;78.95;97872.84;104919;1271;75920;-28
2022/09/14 07:56:39;;;;;;;4.10;3.20;;;;;;;13.96;79.56;97877.86;104888;1271;72235;-27
2022/09/14 07:59:06;;;;;;;3.10;2.50;;;;;;;13.73;80.48;97874.44;104999;1271;61137;-27
2022/09/14 08:01:53;;;;;;;3.40;2.10;;;;;;;13.69;82.16;97871.90;105019;1271;62736;-27
2022/09/14 08:04:21;;;;;;;3.70;2.50;;;;;;;14.29;80.92;97873.44;104903;1271;75536;-28
2022/09/14 08:06:48;;;;;;;4.50;2.40;;;;;;;14.51;79.82;97869.59;105015;1270;75928;-28
2022/09/14 08:09:14;;;;;;;5.90;3.10;;;;;;;14.60;79.36;97866.38;105028;1271;73652;-28
2022/09/14 08:11:42;;;;;;;3.40;3.10;;;;;;;14.52;79.98;97860.84;105181;1271;61132;-27
2022/09/14 08:14:10;;;;;;;3.40;2.70;;;;;;;14.55;80.92;97858.34;105125;1270;61056;-28
2022/09/14 08:16:39;;;;;;;2.50;2.30;;;;;;;14.63;81.09;97854.22;104643;1271;74861;-28
2022/09/14 08:19:11;;;;;;;4.80;2.80;;;;;;;14.96;78.78;97852.30;105010;1271;76023;-29
2022/09/14 08:21:38;;;;;;;7.70;3.10;;;;;;;15.25;78.60;97852.54;105084;1272;74319;-29
2022/09/14 08:24:13;;;;;;;2.70;2.50;;;;;;;15.40;78.91;97850.24;105191;1271;61614;-30
2022/09/14 08:26:40;;;;;;;3.50;3.00;;;;;;;15.45;77.79;97848.92;104629;1271;62273;-28
2022/09/14 08:29:08;;;;;;;3.20;2.40;;;;;;;15.48;77.74;97847.13;104935;1271;75547;-28
2022/09/14 08:31:37;;;;;;;2.70;2.10;;;;;;;15.71;76.46;97847.73;104875;1274;75924;-27
2022/09/14 08:34:05;;;;;;;3.20;2.40;;;;;;;16.16;75.05;97849.91;103613;1271;1605855;-28
2022/09/14 08:36:36;;;;;;;3.80;2.50;;;;;;;16.24;74.36;97842.70;104990;1271;61404;-27
2022/09/14 08:39:08;;;;;;;2.70;2.50;;;;;;;16.27;75.05;97846.35;104825;1271;61095;-27
2022/09/14 08:41:42;;;;;;;3.50;2.90;;;;;;;16.21;74.06;97841.67;104778;1271;75807;-25
2022/09/14 08:44:08;;;;;;;3.80;2.80;;;;;;;16.30;75.43;97843.83;104975;1271;75031;-25
2022/09/14 08:46:43;;;;;;;4.80;1.90;;;;;;;16.37;75.01;97839.71;104988;1271;74423;-25
2022/09/14 08:49:27;;;;;;;3.40;2.30;;;;;;;17.04;72.80;97839.25;104699;1272;61114;-25
2022/09/14 08:51:55;;;;;;;2.90;2.20;;;;;;;17.81;69.87;97839.70;104798;1271;61136;-25
2022/09/14 08:54:22;;;;;;;2.30;1.90;;;;;;;18.07;68.21;97835.00;104908;1271;75729;-25
2022/09/14 08:57:21;;;;;;;3.60;2.90;;;;;;;18.16;67.98;97833.73;104822;1271;75895;-25
2022/09/14 08:59:54;;;;;;;2.70;2.20;;;;;;;18.31;68.29;97842.31;104638;1271;73616;-25
2022/09/14 09:02:28;;;;;;;5.50;2.50;;;;;;;18.56;67.72;97844.33;104767;1271;61152;-25
2022/09/14 09:05:06;;;;;;;3.60;2.50;;;;;;;18.40;66.40;97838.27;104834;1271;61108;-25
2022/09/14 09:08:03;;;;;;;2.80;2.40;;;;;;;17.96;67.88;97839.67;104736;1271;75553;-25
2022/09/14 09:10:30;;;;;;;2.50;2.30;;;;;;;17.62;68.90;97833.20;104815;1272;75897;-25
2022/09/14 09:13:03;;;;;;;2.70;2.30;;;;;;;17.49;69.11;97828.23;104751;1271;74264;-25
2022/09/14 09:15:33;;;;;;;2.40;2.20;;;;;;;17.36;68.91;97834.48;104753;1271;62025;-25
2022/09/14 09:18:08;;;;;;;6.60;2.50;;;;;;;17.26;69.66;97841.45;104769;1272;61885;-25
2022/09/14 09:20:47;;;;;;;2.50;2.20;;;;;;;17.36;70.40;97844.80;104809;1271;75501;-25
2022/09/14 09:23:16;;;;;;;2.40;2.00;;;;;;;18.04;68.54;97841.38;104778;1271;76342;-25
2022/09/14 09:26:02;;;;;;;2.90;2.40;;;;;;;18.22;66.23;97843.01;104733;1270;73395;-25
2022/09/14 09:28:29;;;;;;;9.50;2.40;;;;;;;18.27;66.26;97838.05;104900;1271;62031;-25
2022/09/14 09:30:59;;;;;;;4.00;2.60;;;;;;;18.42;66.70;97836.70;104809;1272;61171;-25
2022/09/14 09:33:30;;;;;;;3.60;2.20;;;;;;;18.50;66.37;97834.50;104770;1271;75378;-25
2022/09/14 09:36:06;;;;;;;3.30;2.60;;;;;;;18.76;66.08;97832.10;104807;1272;75738;-25
2022/09/14 09:38:34;;;;;;;3.50;3.00;;;;;;;19.20;64.87;97825.90;104769;1273;73501;-25
2022/09/14 09:41:15;;;;;;;3.40;2.50;;;;;;;19.46;65.01;97826.98;104951;1271;61042;-25
2022/09/14 09:44:12;;;;;;;3.60;2.20;;;;;;;19.32;64.19;97829.70;104962;1271;61932;-25
2022/09/14 09:47:00;;;;;;;6.40;3.00;;;;;;;19.29;63.82;97823.75;104517;1274;75531;-25
2022/09/14 09:49:31;;;;;;;2.80;2.60;;;;;;;19.04;62.85;97820.58;104999;1271;76107;-25
2022/09/14 09:52:15;;;;;;;3.80;2.40;;;;;;;18.80;64.04;97818.22;104716;1271;74387;-25
2022/09/14 09:54:49;;;;;;;2.90;2.50;;;;;;;18.69;64.71;97815.66;104645;1271;61801;-25
2022/09/14 09:57:33;;;;;;;3.30;2.20;;;;;;;18.61;64.76;97815.84;104759;1271;61064;-25
2022/09/14 10:02:30;;;;;;;3.40;2.80;;;;;;;19.58;62.45;97806.11;101839;1310;601019;-24
2022/09/14 10:05:10;;;;;;;3.50;2.20;;;;;;;19.29;60.87;97805.40;103999;1284;62361;-23
2022/09/14 10:07:53;;;;;;;2.70;2.20;;;;;;;19.35;62.64;97811.75;104420;1284;62009;-23
2022/09/14 10:10:38;;;;;;;3.10;2.60;;;;;;;19.08;64.11;97813.94;104388;1284;74954;-23
2022/09/14 10:13:13;;;;;;;4.00;2.60;;;;;;;18.76;65.00;97809.95;103954;1284;76815;-23
2022/09/14 10:15:42;;;;;;;2.70;2.40;;;;;;;18.80;63.83;97809.45;102577;1281;2000033;-24
2022/09/14 10:18:13;;;;;;;4.90;3.20;;;;;;;18.82;63.35;97804.25;104316;1281;62145;-23
2022/09/14 10:20:52;;;;;;;4.60;2.80;;;;;;;19.47;62.91;97800.90;103921;1284;63055;-23
2022/09/14 10:23:19;;;;;;;3.00;2.40;;;;;;;19.70;59.80;97797.21;103970;1281;73975;-23
2022/09/14 10:25:49;;;;;;;4.10;2.50;;;;;;;19.34;60.38;97801.77;104081;1284;76935;-23
2022/09/14 10:28:22;;;;;;;7.20;2.70;;;;;;;18.96;60.46;97808.52;104192;1281;75340;-23
2022/09/14 10:31:11;;;;;;;6.00;2.80;;;;;;;18.84;62.55;97814.40;104207;1281;63009;-23
2022/09/14 10:33:39;;;;;;;3.20;2.50;;;;;;;19.51;61.78;97814.80;104193;1281;62880;-24
2022/09/14 10:36:25;;;;;;;3.20;2.60;;;;;;;20.26;61.37;97813.21;104432;1284;74473;-24
2022/09/14 10:39:25;;;;;;;2.90;2.30;;;;;;;20.21;57.59;97799.04;104153;1284;76282;-24
2022/09/14 10:41:58;;;;;;;3.50;2.20;;;;;;;20.35;57.26;97805.78;103992;1284;74288;-24
2022/09/14 10:44:41;;;;;;;3.50;2.30;;;;;;;20.65;55.71;97802.41;104079;1284;62855;-24
2022/09/14 10:47:14;;;;;;;2.30;1.80;;;;;;;20.80;54.21;97802.73;104330;1281;62952;-24
2022/09/14 10:49:50;;;;;;;4.40;1.90;;;;;;;20.90;54.50;97808.57;104338;1284;74689;-24
2022/09/14 10:52:43;;;;;;;2.60;1.60;;;;;;;21.20;53.61;97803.19;104221;1282;76540;-24
2022/09/14 10:55:34;;;;;;;2.80;1.90;;;;;;;21.19;52.25;97804.54;103617;1284;75700;-24
2022/09/14 10:58:30;;;;;;;3.30;1.90;;;;;;;21.14;53.41;97810.60;103821;1281;61760;-24
2022/09/14 11:01:17;;;;;;;4.60;2.30;;;;;;;21.53;54.25;97817.47;103792;1285;61818;-24
2022/09/14 11:03:59;;;;;;;2.30;1.80;;;;;;;21.72;52.65;97810.19;104098;1281;74502;-24
2022/09/14 11:06:45;;;;;;;4.00;1.90;;;;;;;21.49;50.50;97800.00;104040;1281;77046;-24
2022/09/14 11:09:17;;;;;;;2.60;1.70;;;;;;;21.03;53.28;97810.23;104118;1281;75111;-24
2022/09/14 11:11:57;;;;;;;5.70;2.40;;;;;;;20.80;53.38;97812.21;104282;1281;63146;-24
2022/09/14 11:14:36;;;;;;;4.20;1.90;;;;;;;20.26;54.32;97810.54;103840;1284;61955;-24
2022/09/14 11:17:41;;;;;;;3.90;2.20;;;;;;;20.13;54.89;97810.66;104315;1281;75742;-24
2022/09/14 11:20:30;;;;;;;2.60;1.90;;;;;;;20.13;55.72;97803.77;104293;1281;76714;-24
2022/09/14 11:23:12;;;;;;;3.10;2.10;;;;;;;20.57;55.00;97806.04;104303;1284;74102;-24
2022/09/14 11:25:53;;;;;;;3.50;2.30;;;;;;;20.96;54.88;97806.09;103927;1284;62729;-24
2022/09/14 11:28:26;;;;;;;4.80;2.70;;;;;;;21.07;53.62;97799.20;104280;1281;63158;-24
2022/09/14 11:31:27;;;;;;;5.80;2.00;;;;;;;21.09;54.41;97800.15;104256;1284;75817;-24
2022/09/14 11:34:05;;;;;;;2.40;1.90;;;;;;;20.70;55.09;97808.47;104230;1284;75823;-24
2022/09/14 11:36:54;;;;;;;4.60;2.20;;;;;;;19.98;55.57;97801.92;104157;1283;74224;-24
2022/09/14 11:39:25;;;;;;;2.40;1.90;;;;;;;20.04;56.14;97803.05;103924;1284;63335;-24
2022/09/14 11:41:59;;;;;;;3.90;1.90;;;;;;;19.96;54.90;97799.46;104287;1281;63097;-24
2022/09/14 11:44:33;;;;;;;2.90;1.90;;;;;;;19.66;55.40;97799.14;103962;1281;74668;-24
2022/09/14 11:47:19;;;;;;;4.40;1.80;;;;;;;19.40;55.05;97803.30;103903;1281;76943;-24
2022/09/14 11:49:59;;;;;;;4.50;2.30;;;;;;;19.34;55.92;97805.09;104324;1281;74050;-24
2022/09/14 11:52:28;;;;;;;2.80;1.80;;;;;;;19.24;56.53;97807.50;103815;1281;61782;-24